createdAt,value
2022-08-28T00:00:26.458Z,1005.96
2022-08-28T00:01:26.415Z,1005.99
2022-08-28T00:02:26.455Z,1005.95
2022-08-28T00:03:26.383Z,1005.97
2022-08-28T00:04:26.391Z,1005.99
2022-08-28T00:05:26.404Z,1005.99
2022-08-28T00:06:26.346Z,1006.01
2022-08-28T00:07:26.329Z,1006.06
2022-08-28T00:08:26.331Z,1006.02
2022-08-28T00:09:26.308Z,1006.04
2022-08-28T00:10:26.356Z,1006.06
2022-08-28T00:11:26.290Z,1006.09
2022-08-28T00:12:26.287Z,1006.07
2022-08-28T00:13:26.259Z,1006.06
2022-08-28T00:14:26.256Z,1006.06
2022-08-28T00:15:26.293Z,1006.02
2022-08-28T00:16:26.293Z,1006.05
2022-08-28T00:17:26.219Z,1006.03
2022-08-28T00:18:26.215Z,1006.04
2022-08-28T00:19:26.201Z,1006.03
2022-08-28T00:20:26.237Z,1006.06
2022-08-28T00:21:26.187Z,1006.06
2022-08-28T00:22:26.167Z,1006.02
2022-08-28T00:23:26.160Z,1006.04
2022-08-28T00:24:27.139Z,1006.03
2022-08-28T00:25:26.179Z,1006.06
2022-08-28T00:26:26.128Z,1006.00
2022-08-28T00:27:26.136Z,1006.03
2022-08-28T00:28:26.089Z,1006.03
2022-08-28T00:29:26.087Z,1006.07
2022-08-28T00:30:26.130Z,1006.08
2022-08-28T00:31:26.165Z,1006.09
2022-08-28T00:32:26.056Z,1006.08
2022-08-28T00:33:26.049Z,1006.04
2022-08-28T00:34:28.543Z,1006.08
2022-08-28T00:35:27.078Z,1006.06
2022-08-28T00:36:26.005Z,1006.11
2022-08-28T00:37:26.015Z,1006.11
2022-08-28T00:38:25.988Z,1006.07
2022-08-28T00:39:25.987Z,1006.12
2022-08-28T00:40:30.562Z,1006.14
2022-08-28T00:41:27.467Z,1006.10
2022-08-28T00:42:25.952Z,1006.15
2022-08-28T00:43:25.930Z,1006.14
2022-08-28T00:44:25.923Z,1006.12
2022-08-28T00:45:25.958Z,1006.17
2022-08-28T00:46:25.961Z,1006.14
2022-08-28T00:47:25.898Z,1006.14
2022-08-28T00:48:25.877Z,1006.11
2022-08-28T00:49:25.877Z,1006.08
2022-08-28T00:50:25.904Z,1006.08
2022-08-28T00:51:25.848Z,1006.07
2022-08-28T00:52:25.835Z,1006.01
2022-08-28T00:53:27.136Z,1006.00
2022-08-28T00:54:25.807Z,1005.95
2022-08-28T00:55:25.850Z,1005.94
2022-08-28T00:56:25.783Z,1005.90
2022-08-28T00:57:27.148Z,1005.87
2022-08-28T00:58:25.757Z,1005.78
2022-08-28T00:59:25.742Z,1005.74
2022-08-28T01:00:25.768Z,1005.69
2022-08-28T01:01:25.794Z,1005.66
2022-08-28T01:02:25.776Z,1005.62
2022-08-28T01:03:26.585Z,1005.67
2022-08-28T01:04:25.696Z,1005.66
2022-08-28T01:05:25.726Z,1005.69
2022-08-28T01:06:25.679Z,1005.60
2022-08-28T01:07:25.662Z,1005.66
2022-08-28T01:08:25.654Z,1005.67
2022-08-28T01:09:25.643Z,1005.70
2022-08-28T01:10:25.677Z,1005.68
2022-08-28T01:11:25.615Z,1005.66
2022-08-28T01:12:25.626Z,1005.70
2022-08-28T01:13:25.602Z,1005.69
2022-08-28T01:14:25.576Z,1005.69
2022-08-28T01:15:25.623Z,1005.66
2022-08-28T01:16:29.254Z,1005.71
2022-08-28T01:17:26.544Z,1005.73
2022-08-28T01:18:25.534Z,1005.71
2022-08-28T01:19:25.520Z,1005.72
2022-08-28T01:20:25.571Z,1005.77
2022-08-28T01:21:25.499Z,1005.69
2022-08-28T01:22:25.486Z,1005.67
2022-08-28T01:23:25.468Z,1005.72
2022-08-28T01:24:25.476Z,1005.69
2022-08-28T01:25:25.493Z,1005.65
2022-08-28T01:26:25.446Z,1005.71
2022-08-28T01:27:25.436Z,1005.74
2022-08-28T01:28:25.423Z,1005.78
2022-08-28T01:29:25.407Z,1005.75
2022-08-28T01:30:25.455Z,1005.79
2022-08-28T01:31:25.429Z,1005.73
2022-08-28T01:32:25.363Z,1005.73
2022-08-28T01:33:27.940Z,1005.78
2022-08-28T01:34:25.355Z,1005.81
2022-08-28T01:35:25.383Z,1005.88
2022-08-28T01:36:25.325Z,1005.90
2022-08-28T01:37:25.309Z,1005.90
2022-08-28T01:38:26.812Z,1005.94
2022-08-28T01:39:25.277Z,1005.96
2022-08-28T01:40:25.378Z,1006.00
2022-08-28T01:41:25.273Z,1006.05
2022-08-28T01:42:25.255Z,1006.10
2022-08-28T01:43:25.249Z,1006.19
2022-08-28T01:44:25.244Z,1006.17
2022-08-28T01:45:25.256Z,1006.19
2022-08-28T01:46:25.317Z,1006.23
2022-08-28T01:47:25.198Z,1006.24
2022-08-28T01:48:25.187Z,1006.28
2022-08-28T01:49:25.171Z,1006.33
2022-08-28T01:50:25.216Z,1006.34
2022-08-28T01:51:25.152Z,1006.40
2022-08-28T01:52:26.450Z,1006.40
2022-08-28T01:53:25.172Z,1006.34
2022-08-28T01:54:26.112Z,1006.33
2022-08-28T01:55:25.142Z,1006.31
2022-08-28T01:56:25.128Z,1006.36
2022-08-28T01:57:25.086Z,1006.35
2022-08-28T01:58:25.068Z,1006.36
2022-08-28T01:59:25.057Z,1006.33
2022-08-28T02:00:25.091Z,1006.29
2022-08-28T02:01:25.149Z,1006.34
2022-08-28T02:02:25.030Z,1006.35
2022-08-28T02:03:24.999Z,1006.32
2022-08-28T02:04:31.831Z,1006.24
2022-08-28T02:05:26.033Z,1006.28
2022-08-28T02:06:24.995Z,1006.25
2022-08-28T02:07:24.964Z,1006.24
2022-08-28T02:08:24.972Z,1006.24
2022-08-28T02:09:24.939Z,1006.21
2022-08-28T02:10:24.990Z,1006.22
2022-08-28T02:11:24.921Z,1006.21
2022-08-28T02:12:24.916Z,1006.23
2022-08-28T02:13:25.698Z,1006.21
2022-08-28T02:14:24.889Z,1006.20
2022-08-28T02:15:24.918Z,1006.14
2022-08-28T02:16:24.857Z,1006.11
2022-08-28T02:17:24.863Z,1006.10
2022-08-28T02:18:24.843Z,1006.04
2022-08-28T02:19:24.832Z,1005.98
2022-08-28T02:20:24.827Z,1005.98
2022-08-28T02:21:24.849Z,1005.91
2022-08-28T02:22:24.791Z,1005.89
2022-08-28T02:23:24.781Z,1005.84
2022-08-28T02:24:24.772Z,1005.77
2022-08-28T02:25:24.755Z,1005.76
2022-08-28T02:26:24.810Z,1005.72
2022-08-28T02:27:24.738Z,1005.75
2022-08-28T02:28:24.741Z,1005.68
2022-08-28T02:29:24.717Z,1005.68
2022-08-28T02:30:24.706Z,1005.69
2022-08-28T02:31:24.759Z,1005.72
2022-08-28T02:32:24.695Z,1005.69
2022-08-28T02:33:24.661Z,1005.79
2022-08-28T02:34:24.645Z,1005.81
2022-08-28T02:35:24.625Z,1005.82
2022-08-28T02:36:24.669Z,1005.92
2022-08-28T02:37:24.595Z,1005.87
2022-08-28T02:38:24.611Z,1005.93
2022-08-28T02:39:24.601Z,1005.97
2022-08-28T02:40:24.650Z,1006.01
2022-08-28T02:41:24.641Z,1005.98
2022-08-28T02:42:24.562Z,1006.02
2022-08-28T02:43:24.553Z,1006.02
2022-08-28T02:44:24.531Z,1006.04
2022-08-28T02:45:24.518Z,1006.10
2022-08-28T02:46:24.629Z,1006.13
2022-08-28T02:47:24.500Z,1006.10
2022-08-28T02:48:24.492Z,1006.11
2022-08-28T02:49:24.474Z,1006.14
2022-08-28T02:50:24.485Z,1006.13
2022-08-28T02:51:24.490Z,1006.14
2022-08-28T02:52:24.453Z,1006.12
2022-08-28T02:53:24.429Z,1006.17
2022-08-28T02:54:24.417Z,1006.19
2022-08-28T02:55:24.401Z,1006.17
2022-08-28T02:56:24.446Z,1006.16
2022-08-28T02:57:24.382Z,1006.21
2022-08-28T02:58:24.377Z,1006.26
2022-08-28T02:59:24.362Z,1006.26
2022-08-28T03:00:24.334Z,1006.23
2022-08-28T03:01:24.405Z,1006.19
2022-08-28T03:02:24.452Z,1006.19
2022-08-28T03:03:24.329Z,1006.21
2022-08-28T03:04:24.304Z,1006.24
2022-08-28T03:05:24.305Z,1006.18
2022-08-28T03:06:24.314Z,1006.22
2022-08-28T03:07:24.272Z,1006.20
2022-08-28T03:08:27.256Z,1006.20
2022-08-28T03:09:24.247Z,1006.16
2022-08-28T03:10:24.232Z,1006.20
2022-08-28T03:11:24.265Z,1006.18
2022-08-28T03:12:24.227Z,1006.19
2022-08-28T03:13:27.098Z,1006.16
2022-08-28T03:14:24.192Z,1006.17
2022-08-28T03:15:24.171Z,1006.16
2022-08-28T03:16:24.303Z,1006.20
2022-08-28T03:17:24.165Z,1006.21
2022-08-28T03:18:24.143Z,1006.17
2022-08-28T03:19:24.115Z,1006.10
2022-08-28T03:20:24.118Z,1006.07
2022-08-28T03:21:24.151Z,1006.01
2022-08-28T03:22:24.098Z,1005.98
2022-08-28T03:23:24.073Z,1005.91
2022-08-28T03:24:24.073Z,1005.87
2022-08-28T03:25:24.081Z,1005.87
2022-08-28T03:26:24.100Z,1005.81
2022-08-28T03:27:24.033Z,1005.77
2022-08-28T03:28:24.022Z,1005.70
2022-08-28T03:29:24.009Z,1005.71
2022-08-28T03:30:24.005Z,1005.66
2022-08-28T03:31:24.023Z,1005.65
2022-08-28T03:32:23.977Z,1005.65
2022-08-28T03:33:24.997Z,1005.59
2022-08-28T03:34:23.967Z,1005.54
2022-08-28T03:35:23.952Z,1005.54
2022-08-28T03:36:23.998Z,1005.55
2022-08-28T03:37:23.905Z,1005.51
2022-08-28T03:38:25.277Z,1005.47
2022-08-28T03:39:23.886Z,1005.41
2022-08-28T03:40:23.925Z,1005.35
2022-08-28T03:41:23.914Z,1005.37
2022-08-28T03:42:23.862Z,1005.33
2022-08-28T03:43:23.851Z,1005.35
2022-08-28T03:44:23.835Z,1005.29
2022-08-28T03:45:23.843Z,1005.30
2022-08-28T03:46:24.053Z,1005.31
2022-08-28T03:47:23.798Z,1005.33
2022-08-28T03:48:23.794Z,1005.32
2022-08-28T03:49:23.781Z,1005.32
2022-08-28T03:50:23.755Z,1005.33
2022-08-28T03:51:29.121Z,1005.34
2022-08-28T03:52:24.748Z,1005.38
2022-08-28T03:53:23.730Z,1005.33
2022-08-28T03:54:23.714Z,1005.24
2022-08-28T03:55:23.701Z,1005.20
2022-08-28T03:56:23.742Z,1005.17
2022-08-28T03:57:23.684Z,1005.13
2022-08-28T03:58:23.676Z,1005.11
2022-08-28T03:59:24.396Z,1005.06
2022-08-28T04:00:24.645Z,1005.01
2022-08-28T04:01:23.721Z,1004.98
2022-08-28T04:02:23.629Z,1004.93
2022-08-28T04:03:23.666Z,1004.90
2022-08-28T04:04:23.604Z,1004.92
2022-08-28T04:05:23.594Z,1004.92
2022-08-28T04:06:23.627Z,1004.88
2022-08-28T04:07:23.571Z,1004.90
2022-08-28T04:08:23.565Z,1004.82
2022-08-28T04:09:23.519Z,1004.76
2022-08-28T04:10:23.534Z,1004.71
2022-08-28T04:11:23.565Z,1004.74
2022-08-28T04:12:23.552Z,1004.74
2022-08-28T04:13:23.499Z,1004.71
2022-08-28T04:14:23.495Z,1004.73
2022-08-28T04:15:23.464Z,1004.81
2022-08-28T04:16:23.585Z,1004.75
2022-08-28T04:17:23.451Z,1004.72
2022-08-28T04:18:23.444Z,1004.75
2022-08-28T04:19:23.434Z,1004.71
2022-08-28T04:20:23.434Z,1006.59
2022-08-28T04:21:23.454Z,1006.64
2022-08-28T04:22:23.639Z,1006.64
2022-08-28T04:23:23.398Z,1006.65
2022-08-28T04:24:23.399Z,1006.67
2022-08-28T04:25:23.355Z,1006.61
2022-08-28T04:26:23.412Z,1006.70
2022-08-28T04:27:23.345Z,1006.76
2022-08-28T04:28:23.331Z,1006.70
2022-08-28T04:29:23.317Z,1006.74
2022-08-28T04:30:23.322Z,1006.77
2022-08-28T04:31:32.128Z,1006.75
2022-08-28T04:32:24.284Z,1006.79
2022-08-28T04:33:23.283Z,1006.77
2022-08-28T04:34:23.264Z,1006.75
2022-08-28T04:35:23.252Z,1006.79
2022-08-28T04:36:23.299Z,1006.75
2022-08-28T04:37:23.233Z,1006.78
2022-08-28T04:38:23.221Z,1006.81
2022-08-28T04:39:23.194Z,1006.83
2022-08-28T04:40:23.245Z,1006.86
2022-08-28T04:41:23.231Z,1006.87
2022-08-28T04:42:23.175Z,1006.84
2022-08-28T04:43:23.164Z,1006.84
2022-08-28T04:44:23.154Z,1006.88
2022-08-28T04:45:23.135Z,1006.85
2022-08-28T04:46:23.186Z,1006.86
2022-08-28T04:47:23.133Z,1006.87
2022-08-28T04:48:23.112Z,1006.86
2022-08-28T04:49:23.095Z,1006.82
2022-08-28T04:50:23.139Z,1006.87
2022-08-28T04:51:23.067Z,1006.85
2022-08-28T04:52:23.054Z,1006.88
2022-08-28T04:53:23.054Z,1006.86
2022-08-28T04:54:23.044Z,1006.84
2022-08-28T04:55:27.841Z,1006.85
2022-08-28T04:56:24.027Z,1006.86
2022-08-28T04:57:22.997Z,1006.87
2022-08-28T04:58:24.086Z,1006.89
2022-08-28T04:59:23.013Z,1006.88
2022-08-28T05:00:23.111Z,1006.94
2022-08-28T05:01:23.090Z,1006.90
2022-08-28T05:02:23.075Z,1006.92
2022-08-28T05:03:22.949Z,1006.95
2022-08-28T05:04:22.928Z,1007.00
2022-08-28T05:05:22.913Z,1006.99
2022-08-28T05:06:22.962Z,1006.98
2022-08-28T05:07:22.904Z,1006.98
2022-08-28T05:08:22.884Z,1007.01
2022-08-28T05:09:22.870Z,1006.99
2022-08-28T05:10:22.864Z,1006.97
2022-08-28T05:11:33.837Z,1006.94
2022-08-28T05:12:23.842Z,1006.97
2022-08-28T05:13:22.822Z,1006.99
2022-08-28T05:14:22.793Z,1007.01
2022-08-28T05:15:22.796Z,1007.00
2022-08-28T05:16:22.892Z,1006.99
2022-08-28T05:17:22.786Z,1006.97
2022-08-28T05:18:22.771Z,1007.02
2022-08-28T05:19:22.756Z,1006.99
2022-08-28T05:20:22.754Z,1006.99
2022-08-28T05:21:22.769Z,1007.03
2022-08-28T05:22:22.719Z,1007.01
2022-08-28T05:23:25.485Z,1007.08
2022-08-28T05:24:22.702Z,1007.08
2022-08-28T05:25:22.675Z,1007.07
2022-08-28T05:26:22.724Z,1007.11
2022-08-28T05:27:22.664Z,1007.10
2022-08-28T05:28:22.641Z,1007.08
2022-08-28T05:29:23.526Z,1007.12
2022-08-28T05:30:22.623Z,1007.12
2022-08-28T05:31:22.736Z,1007.12
2022-08-28T05:32:22.601Z,1007.17
2022-08-28T05:33:22.590Z,1007.12
2022-08-28T05:34:22.589Z,1007.19
2022-08-28T05:35:22.574Z,1007.18
2022-08-28T05:36:22.624Z,1007.22
2022-08-28T05:37:22.551Z,1007.20
2022-08-28T05:38:22.549Z,1007.21
2022-08-28T05:39:22.571Z,1007.27
2022-08-28T05:40:22.591Z,1007.22
2022-08-28T05:41:22.576Z,1007.27
2022-08-28T05:42:22.499Z,1007.28
2022-08-28T05:43:22.473Z,1007.27
2022-08-28T05:44:22.471Z,1007.29
2022-08-28T05:45:22.495Z,1007.24
2022-08-28T05:46:22.573Z,1007.31
2022-08-28T05:47:22.452Z,1007.33
2022-08-28T05:48:22.453Z,1007.31
2022-08-28T05:49:22.428Z,1007.35
2022-08-28T05:50:22.440Z,1007.32
2022-08-28T05:51:22.523Z,1007.29
2022-08-28T05:52:22.403Z,1007.28
2022-08-28T05:53:22.403Z,1007.30
2022-08-28T05:54:22.371Z,1007.31
2022-08-28T05:55:22.360Z,1007.30
2022-08-28T05:56:22.389Z,1007.10
2022-08-28T05:57:22.340Z,1007.04
2022-08-28T05:58:22.321Z,1006.95
2022-08-28T05:59:22.311Z,1006.94
2022-08-28T06:00:22.308Z,1006.88
2022-08-28T06:01:22.356Z,1006.83
2022-08-28T06:02:22.330Z,1006.77
2022-08-28T06:03:22.256Z,1006.71
2022-08-28T06:04:22.307Z,1006.65
2022-08-28T06:05:22.252Z,1006.60
2022-08-28T06:06:22.302Z,1006.48
2022-08-28T06:07:22.219Z,1006.44
2022-08-28T06:08:22.219Z,1006.36
2022-08-28T06:09:26.554Z,1006.38
2022-08-28T06:10:23.201Z,1006.40
2022-08-28T06:11:22.232Z,1006.41
2022-08-28T06:12:22.153Z,1006.33
2022-08-28T06:13:22.153Z,1006.28
2022-08-28T06:14:22.145Z,1006.19
2022-08-28T06:15:22.156Z,1006.17
2022-08-28T06:16:22.234Z,1006.07
2022-08-28T06:17:23.559Z,1006.01
2022-08-28T06:18:22.099Z,1006.03
2022-08-28T06:19:22.126Z,1006.02
2022-08-28T06:20:22.086Z,1005.96
2022-08-28T06:21:22.110Z,1006.00
2022-08-28T06:22:22.066Z,1006.01
2022-08-28T06:23:24.117Z,1005.97
2022-08-28T06:24:22.026Z,1005.94
2022-08-28T06:25:22.041Z,1005.93
2022-08-28T06:26:22.083Z,1005.79
2022-08-28T06:27:22.037Z,1005.78
2022-08-28T06:28:21.995Z,1005.69
2022-08-28T06:29:22.088Z,1005.72
2022-08-28T06:30:21.973Z,1005.78
2022-08-28T06:31:23.657Z,1005.76
2022-08-28T06:32:22.088Z,1005.80
2022-08-28T06:33:21.966Z,1005.83
2022-08-28T06:34:21.942Z,1005.79
2022-08-28T06:35:21.932Z,1005.85
2022-08-28T06:36:21.963Z,1005.92
2022-08-28T06:37:21.900Z,1005.98
2022-08-28T06:38:21.892Z,1006.09
2022-08-28T06:39:21.891Z,1006.15
2022-08-28T06:40:21.965Z,1006.08
2022-08-28T06:41:21.924Z,1006.10
2022-08-28T06:42:21.824Z,1006.12
2022-08-28T06:43:21.815Z,1006.15
2022-08-28T06:44:21.826Z,1006.21
2022-08-28T06:45:21.820Z,1006.17
2022-08-28T06:46:21.992Z,1006.15
2022-08-28T06:47:21.792Z,1006.17
2022-08-28T06:48:21.792Z,1006.19
2022-08-28T06:49:21.752Z,1006.28
2022-08-28T06:50:21.769Z,1006.18
2022-08-28T06:51:24.981Z,1006.15
2022-08-28T06:52:21.745Z,1006.12
2022-08-28T06:53:21.735Z,1006.19
2022-08-28T06:54:23.461Z,1006.16
2022-08-28T06:55:21.700Z,1006.21
2022-08-28T06:56:26.178Z,1006.30
2022-08-28T06:57:22.694Z,1006.30
2022-08-28T06:58:21.656Z,1006.34
2022-08-28T06:59:21.657Z,1006.33
2022-08-28T07:00:21.635Z,1006.33
2022-08-28T07:01:21.765Z,1006.36
2022-08-28T07:02:21.734Z,1006.39
2022-08-28T07:03:22.612Z,1006.41
2022-08-28T07:04:21.588Z,1006.47
2022-08-28T07:05:21.589Z,1006.46
2022-08-28T07:06:21.715Z,1006.45
2022-08-28T07:07:32.683Z,1006.44
2022-08-28T07:08:22.557Z,1006.47
2022-08-28T07:09:21.542Z,1006.47
2022-08-28T07:10:21.542Z,1006.51
2022-08-28T07:11:21.555Z,1006.47
2022-08-28T07:12:21.492Z,1006.41
2022-08-28T07:13:21.485Z,1006.41
2022-08-28T07:14:21.477Z,1006.37
2022-08-28T07:15:21.486Z,1006.38
2022-08-28T07:16:21.551Z,1006.40
2022-08-28T07:17:21.461Z,1006.40
2022-08-28T07:18:21.429Z,1006.47
2022-08-28T07:19:21.457Z,1006.47
2022-08-28T07:20:21.418Z,1006.52
2022-08-28T07:21:21.456Z,1006.62
2022-08-28T07:22:21.396Z,1006.68
2022-08-28T07:23:21.384Z,1006.71
2022-08-28T07:24:21.381Z,1006.73
2022-08-28T07:25:21.366Z,1006.72
2022-08-28T07:26:21.387Z,1006.84
2022-08-28T07:27:21.356Z,1007.00
2022-08-28T07:28:21.315Z,1007.03
2022-08-28T07:29:21.328Z,1007.08
2022-08-28T07:30:21.336Z,1007.19
2022-08-28T07:31:21.413Z,1007.22
2022-08-28T07:32:21.284Z,1007.25
2022-08-28T07:33:21.256Z,1007.29
2022-08-28T07:34:21.257Z,1007.30
2022-08-28T07:35:21.237Z,1007.35
2022-08-28T07:36:29.059Z,1007.50
2022-08-28T07:37:22.229Z,1007.64
2022-08-28T07:38:21.209Z,1007.80
2022-08-28T07:39:21.216Z,1008.03
2022-08-28T07:40:21.242Z,1008.23
2022-08-28T07:41:21.202Z,1008.39
2022-08-28T07:42:21.152Z,1008.61
2022-08-28T07:43:21.170Z,1008.77
2022-08-28T07:44:21.137Z,1008.85
2022-08-28T07:45:21.138Z,1009.03
2022-08-28T07:46:21.207Z,1009.21
2022-08-28T07:47:21.134Z,1009.47
2022-08-28T07:48:21.377Z,1009.86
2022-08-28T07:49:21.099Z,1010.18
2022-08-28T07:50:21.076Z,1010.48
2022-08-28T07:51:21.106Z,1010.37
2022-08-28T07:52:21.066Z,1010.26
2022-08-28T07:53:21.039Z,1010.16
2022-08-28T07:54:21.026Z,1010.04
2022-08-28T07:55:21.035Z,1010.19
2022-08-28T07:56:21.050Z,1009.84
2022-08-28T07:57:20.999Z,1009.81
2022-08-28T07:58:20.982Z,1009.77
2022-08-28T07:59:21.026Z,1009.81
2022-08-28T08:00:20.949Z,1009.67
2022-08-28T08:01:21.047Z,1009.71
2022-08-28T08:02:20.925Z,1009.68
2022-08-28T08:03:20.957Z,1009.80
2022-08-28T08:04:20.921Z,1009.77
2022-08-28T08:05:20.927Z,1009.90
2022-08-28T08:06:20.928Z,1009.03
2022-08-28T08:07:20.891Z,1009.17
2022-08-28T08:08:20.866Z,1009.16
2022-08-28T08:09:20.860Z,1009.14
2022-08-28T08:10:20.860Z,1009.17
2022-08-28T08:11:20.867Z,1009.14
2022-08-28T08:12:20.813Z,1009.08
2022-08-28T08:13:20.839Z,1009.17
2022-08-28T08:14:20.796Z,1009.29
2022-08-28T08:15:20.805Z,1009.37
2022-08-28T08:16:20.840Z,1009.47
2022-08-28T08:17:20.753Z,1008.48
2022-08-28T08:18:20.830Z,1008.47
2022-08-28T08:19:20.748Z,1008.47
2022-08-28T08:20:20.736Z,1008.47
2022-08-28T08:21:20.777Z,1008.44
2022-08-28T08:22:20.720Z,1008.48
2022-08-28T08:23:20.733Z,1008.48
2022-08-28T08:24:20.673Z,1008.44
2022-08-28T08:25:20.659Z,1008.46
2022-08-28T08:26:20.721Z,1008.43
2022-08-28T08:27:20.664Z,1008.45
2022-08-28T08:28:20.626Z,1008.48
2022-08-28T08:29:20.651Z,1008.50
2022-08-28T08:30:20.611Z,1008.49
2022-08-28T08:31:20.683Z,1008.50
2022-08-28T08:32:20.592Z,1008.51
2022-08-28T08:33:20.574Z,1008.53
2022-08-28T08:34:20.572Z,1008.55
2022-08-28T08:35:20.561Z,1008.55
2022-08-28T08:36:20.589Z,1008.57
2022-08-28T08:37:20.537Z,1008.53
2022-08-28T08:38:20.506Z,1008.57
2022-08-28T08:39:20.533Z,1008.60
2022-08-28T08:40:20.520Z,1008.61
2022-08-28T08:41:20.471Z,1008.59
2022-08-28T08:42:20.534Z,1008.59
2022-08-28T08:43:20.471Z,1008.60
2022-08-28T08:44:20.471Z,1008.53
2022-08-28T08:45:20.458Z,1008.53
2022-08-28T08:46:20.486Z,1008.55
2022-08-28T08:47:20.426Z,1008.56
2022-08-28T08:48:20.414Z,1008.55
2022-08-28T08:49:20.397Z,1008.53
2022-08-28T08:50:20.396Z,1008.54
2022-08-28T08:51:20.440Z,1008.53
2022-08-28T08:52:20.405Z,1008.57
2022-08-28T08:53:20.358Z,1008.54
2022-08-28T08:54:20.337Z,1008.53
2022-08-28T08:55:20.350Z,1008.49
2022-08-28T08:56:20.374Z,1008.53
2022-08-28T08:57:20.326Z,1008.55
2022-08-28T08:58:20.294Z,1008.52
2022-08-28T08:59:20.301Z,1008.52
2022-08-28T09:00:20.283Z,1008.53
2022-08-28T09:01:20.358Z,1008.57
2022-08-28T09:02:20.256Z,1008.53
2022-08-28T09:03:20.254Z,1008.55
2022-08-28T09:04:21.672Z,1008.54
2022-08-28T09:05:20.224Z,1008.55
2022-08-28T09:06:20.251Z,1008.63
2022-08-28T09:07:20.200Z,1008.58
2022-08-28T09:08:20.220Z,1008.61
2022-08-28T09:09:20.188Z,1008.63
2022-08-28T09:10:20.162Z,1008.61
2022-08-28T09:11:20.191Z,1008.65
2022-08-28T09:12:20.141Z,1008.67
2022-08-28T09:13:20.149Z,1008.68
2022-08-28T09:14:20.531Z,1008.72
2022-08-28T09:15:20.124Z,1008.72
2022-08-28T09:16:20.210Z,1008.74
2022-08-28T09:17:20.101Z,1008.79
2022-08-28T09:18:20.075Z,1008.79
2022-08-28T09:19:20.063Z,1008.84
2022-08-28T09:20:20.057Z,1008.80
2022-08-28T09:21:21.113Z,1008.85
2022-08-28T09:22:20.028Z,1008.86
2022-08-28T09:23:20.018Z,1008.83
2022-08-28T09:24:20.021Z,1008.82
2022-08-28T09:25:19.993Z,1008.86
2022-08-28T09:26:20.033Z,1008.84
2022-08-28T09:27:19.975Z,1008.87
2022-08-28T09:28:20.053Z,1008.81
2022-08-28T09:29:19.957Z,1008.84
2022-08-28T09:30:19.941Z,1008.81
2022-08-28T09:31:19.995Z,1008.81
2022-08-28T09:32:19.910Z,1008.87
2022-08-28T09:33:19.925Z,1008.85
2022-08-28T09:34:19.906Z,1008.84
2022-08-28T09:35:19.909Z,1008.83
2022-08-28T09:36:19.928Z,1008.79
2022-08-28T09:37:19.867Z,1008.81
2022-08-28T09:38:19.884Z,1008.80
2022-08-28T09:39:19.832Z,1008.78
2022-08-28T09:40:19.897Z,1008.80
2022-08-28T09:41:19.858Z,1008.83
2022-08-28T09:42:19.814Z,1008.83
2022-08-28T09:43:19.803Z,1008.83
2022-08-28T09:44:19.791Z,1008.77
2022-08-28T09:45:19.776Z,1008.82
2022-08-28T09:46:19.845Z,1008.82
2022-08-28T09:47:19.763Z,1008.86
2022-08-28T09:48:19.727Z,1008.86
2022-08-28T09:49:19.754Z,1008.87
2022-08-28T09:50:19.704Z,1008.89
2022-08-28T09:51:19.745Z,1008.90
2022-08-28T09:52:24.490Z,1008.93
2022-08-28T09:53:20.701Z,1008.92
2022-08-28T09:54:19.682Z,1008.89
2022-08-28T09:55:19.654Z,1008.92
2022-08-28T09:56:19.692Z,1008.92
2022-08-28T09:57:19.659Z,1008.92
2022-08-28T09:58:19.626Z,1008.92
2022-08-28T09:59:19.613Z,1008.89
2022-08-28T10:00:19.615Z,1008.96
2022-08-28T10:01:19.715Z,1009.01
2022-08-28T10:02:19.586Z,1009.01
2022-08-28T10:03:19.590Z,1008.98
2022-08-28T10:04:19.687Z,1008.95
2022-08-28T10:05:19.571Z,1008.97
2022-08-28T10:06:20.590Z,1008.96
2022-08-28T10:07:19.538Z,1008.97
2022-08-28T10:08:19.518Z,1008.96
2022-08-28T10:09:19.492Z,1008.89
2022-08-28T10:10:19.478Z,1008.90
2022-08-28T10:11:19.511Z,1008.96
2022-08-28T10:12:19.481Z,1008.95
2022-08-28T10:13:19.447Z,1008.88
2022-08-28T10:14:19.462Z,1008.96
2022-08-28T10:15:19.445Z,1008.94
2022-08-28T10:16:19.523Z,1008.93
2022-08-28T10:17:21.629Z,1008.97
2022-08-28T10:18:19.413Z,1008.97
2022-08-28T10:19:19.390Z,1008.88
2022-08-28T10:20:19.392Z,1008.89
2022-08-28T10:21:19.413Z,1008.90
2022-08-28T10:22:19.360Z,1008.92
2022-08-28T10:23:19.356Z,1008.90
2022-08-28T10:24:26.901Z,1008.95
2022-08-28T10:25:20.363Z,1008.98
2022-08-28T10:26:19.382Z,1009.01
2022-08-28T10:27:19.320Z,1009.02
2022-08-28T10:28:19.305Z,1009.04
2022-08-28T10:29:19.281Z,1008.98
2022-08-28T10:30:19.290Z,1008.99
2022-08-28T10:31:19.363Z,1009.01
2022-08-28T10:32:19.266Z,1008.99
2022-08-28T10:33:19.232Z,1008.97
2022-08-28T10:34:19.240Z,1008.98
2022-08-28T10:35:19.211Z,1009.01
2022-08-28T10:36:34.426Z,1008.98
2022-08-28T10:37:20.214Z,1008.95
2022-08-28T10:38:19.178Z,1008.95
2022-08-28T10:39:19.151Z,1009.01
2022-08-28T10:40:19.215Z,1008.96
2022-08-28T10:41:19.170Z,1008.92
2022-08-28T10:42:19.144Z,1008.93
2022-08-28T10:43:19.134Z,1008.99
2022-08-28T10:44:19.128Z,1008.96
2022-08-28T10:45:19.114Z,1008.94
2022-08-28T10:46:19.172Z,1008.92
2022-08-28T10:47:19.084Z,1008.96
2022-08-28T10:48:19.072Z,1008.93
2022-08-28T10:49:19.058Z,1008.94
2022-08-28T10:50:19.166Z,1008.94
2022-08-28T10:51:19.100Z,1008.97
2022-08-28T10:52:20.034Z,1008.91
2022-08-28T10:53:19.022Z,1008.88
2022-08-28T10:54:18.997Z,1008.90
2022-08-28T10:55:18.991Z,1008.90
2022-08-28T10:56:19.032Z,1008.90
2022-08-28T10:57:18.966Z,1008.96
2022-08-28T10:58:23.844Z,1008.89
2022-08-28T10:59:19.971Z,1009.01
2022-08-28T11:00:18.939Z,1008.97
2022-08-28T11:01:19.051Z,1008.96
2022-08-28T11:02:18.957Z,1008.93
2022-08-28T11:03:33.900Z,1009.00
2022-08-28T11:04:25.242Z,1009.00
2022-08-28T11:05:19.888Z,1009.01
2022-08-28T11:06:18.947Z,1009.01
2022-08-28T11:07:18.843Z,1009.02
2022-08-28T11:08:18.840Z,1009.06
2022-08-28T11:09:18.823Z,1009.04
2022-08-28T11:10:18.815Z,1009.08
2022-08-28T11:11:18.855Z,1009.17
2022-08-28T11:12:18.805Z,1009.12
2022-08-28T11:13:18.814Z,1009.12
2022-08-28T11:14:18.780Z,1009.09
2022-08-28T11:15:18.784Z,1009.08
2022-08-28T11:16:18.850Z,1009.11
2022-08-28T11:17:18.756Z,1008.98
2022-08-28T11:18:18.748Z,1009.07
2022-08-28T11:19:18.738Z,1009.14
2022-08-28T11:20:18.720Z,1009.06
2022-08-28T11:21:18.740Z,1009.01
2022-08-28T11:22:18.723Z,1009.00
2022-08-28T11:23:18.686Z,1009.02
2022-08-28T11:24:18.675Z,1009.05
2022-08-28T11:25:18.657Z,1009.03
2022-08-28T11:26:19.692Z,1009.02
2022-08-28T11:27:18.647Z,1009.06
2022-08-28T11:28:18.656Z,1009.02
2022-08-28T11:29:18.641Z,1009.07
2022-08-28T11:30:18.623Z,1008.97
2022-08-28T11:31:28.841Z,1009.01
2022-08-28T11:32:19.585Z,1009.04
2022-08-28T11:33:18.570Z,1009.01
2022-08-28T11:34:18.573Z,1009.02
2022-08-28T11:35:18.552Z,1009.05
2022-08-28T11:36:18.612Z,1009.12
2022-08-28T11:37:18.540Z,1009.10
2022-08-28T11:38:20.097Z,1009.08
2022-08-28T11:39:18.509Z,1009.07
2022-08-28T11:40:18.574Z,1008.94
2022-08-28T11:41:18.527Z,1008.95
2022-08-28T11:42:18.496Z,1008.97
2022-08-28T11:43:18.455Z,1008.98
2022-08-28T11:44:18.457Z,1009.04
2022-08-28T11:45:18.432Z,1008.93
2022-08-28T11:46:22.192Z,1008.96
2022-08-28T11:47:19.412Z,1009.00
2022-08-28T11:48:18.420Z,1008.99
2022-08-28T11:49:18.400Z,1009.05
2022-08-28T11:50:18.376Z,1009.01
2022-08-28T11:51:18.423Z,1008.96
2022-08-28T11:52:18.395Z,1009.06
2022-08-28T11:53:18.367Z,1009.09
2022-08-28T11:54:18.352Z,1009.09
2022-08-28T11:55:18.343Z,1008.95
2022-08-28T11:56:21.962Z,1009.01
2022-08-28T11:57:19.354Z,1009.00
2022-08-28T11:58:18.304Z,1009.11
2022-08-28T11:59:18.298Z,1009.14
2022-08-28T12:00:18.275Z,1008.98
2022-08-28T12:01:18.263Z,1009.06
2022-08-28T12:02:18.377Z,1009.01
2022-08-28T12:03:18.256Z,1009.17
2022-08-28T12:04:18.273Z,1009.17
2022-08-28T12:05:18.230Z,1009.08